Time;durP1;ratioP1;P1;durP2;ratioP2;P2;SDS_P1;SDS_P2;PMS_P1;PMS_P2;Temp;Humidity;BMP_temperature;BMP_pressure;BME280_temperature;BME280_humidity;BME280_pressure;Samples;Min_cycle;Max_cycle;Signal;HPM_P1;HPM_P2
2022/05/03 00:00:26;;;;;;;7.03;6.38;;;10.70;99.90;;;;;;4156963;28;19930;-75
2022/05/03 00:02:39;;;;;;;8.82;6.07;;;10.70;99.90;;;;;;4147866;28;20062;-75
2022/05/03 00:05:03;;;;;;;7.00;6.40;;;10.70;99.90;;;;;;4166095;28;20068;-75
2022/05/03 00:07:35;;;;;;;7.82;7.03;;;10.80;99.90;;;;;;4164737;28;20128;-75
2022/05/03 00:09:55;;;;;;;7.43;5.72;;;10.80;99.90;;;;;;4163024;28;20201;-75
2022/05/03 00:12:05;;;;;;;6.60;6.10;;;10.80;99.90;;;;;;4157887;28;20766;-74
2022/05/03 00:14:18;;;;;;;6.60;6.05;;;10.80;99.90;;;;;;4166540;28;20148;-75
2022/05/03 00:16:21;;;;;;;6.55;6.05;;;10.80;99.90;;;;;;4167545;28;20169;-74
2022/05/03 00:18:24;;;;;;;6.95;5.55;;;10.80;99.80;;;;;;4167416;28;20068;-75
2022/05/03 00:20:26;;;;;;;6.78;6.18;;;10.80;99.80;;;;;;4162743;28;20062;-75
2022/05/03 00:22:29;;;;;;;6.68;6.07;;;10.80;99.90;;;;;;4158598;28;20068;-75
2022/05/03 00:24:31;;;;;;;7.03;6.25;;;10.70;99.80;;;;;;4164203;28;20093;-75
2022/05/03 00:26:33;;;;;;;6.60;6.05;;;10.70;99.70;;;;;;4173301;22;20108;-73
2022/05/03 00:28:36;;;;;;;7.38;6.78;;;10.70;99.90;;;;;;4174090;28;20058;-73
2022/05/03 00:30:39;;;;;;;7.43;6.82;;;10.60;99.90;;;;;;4177100;28;20615;-72
2022/05/03 00:32:41;;;;;;;7.63;6.75;;;10.50;99.90;;;;;;4176282;28;20116;-72
2022/05/03 00:34:44;;;;;;;10.57;6.45;;;10.40;99.90;;;;;;4175736;28;20057;-73
2022/05/03 00:36:45;;;;;;;9.65;6.50;;;10.30;99.90;;;;;;4175523;28;20057;-72
2022/05/03 00:38:47;;;;;;;6.97;5.75;;;10.30;99.90;;;;;;4175531;28;20081;-73
2022/05/03 00:40:56;;;;;;;6.65;6.05;;;10.30;99.90;;;;;;4173756;28;20057;-73
2022/05/03 00:43:16;;;;;;;7.40;6.80;;;10.30;99.90;;;;;;4175197;28;20089;-73
2022/05/03 00:45:35;;;;;;;7.55;6.78;;;10.40;99.90;;;;;;4175682;28;20068;-73
2022/05/03 00:47:46;;;;;;;7.85;7.03;;;10.40;99.90;;;;;;4174872;28;20157;-73
2022/05/03 00:50:05;;;;;;;;;;;10.40;99.90;;;;;;4174351;28;20069;-73
2022/05/03 00:52:23;;;;;;;10.98;7.10;;;10.40;99.90;;;;;;4173114;28;19929;-72
2022/05/03 00:54:52;;;;;;;8.23;7.47;;;10.30;99.90;;;;;;4171677;28;20193;-73
2022/05/03 00:57:11;;;;;;;7.55;6.95;;;10.30;99.90;;;;;;4172759;28;20791;-73
2022/05/03 00:59:16;;;;;;;7.88;7.03;;;10.30;99.90;;;;;;4172164;28;20063;-73
2022/05/03 01:01:33;;;;;;;7.40;6.80;;;10.30;99.90;;;;;;4169560;28;20128;-73
2022/05/03 01:03:43;;;;;;;8.13;7.43;;;10.30;99.90;;;;;;4172345;28;20061;-72
2022/05/03 01:06:12;;;;;;;8.02;7.22;;;10.20;99.90;;;;;;4173893;28;20128;-73
2022/05/03 01:08:33;;;;;;;12.75;11.43;;;10.10;99.90;;;;;;4169570;28;20057;-72
2022/05/03 01:10:42;;;;;;;20.27;16.05;;;10.10;99.90;;;;;;4170220;28;20678;-73
2022/05/03 01:13:16;;;;;;;25.98;18.33;;;10.00;99.90;;;;;;4167413;28;20057;-73
2022/05/03 01:15:21;;;;;;;32.30;22.73;;;10.00;99.90;;;;;;4172969;28;20164;-72
2022/05/03 01:17:35;;;;;;;33.90;24.38;;;9.90;99.90;;;;;;4167829;28;20108;-73
2022/05/03 01:19:58;;;;;;;15.02;12.18;;;9.90;99.90;;;;;;4168643;28;20065;-73
2022/05/03 01:22:28;;;;;;;9.60;8.60;;;10.00;99.90;;;;;;4167170;28;20057;-72
2022/05/03 01:24:36;;;;;;;9.55;8.63;;;10.00;99.90;;;;;;4168824;28;20062;-73
2022/05/03 01:26:55;;;;;;;10.85;8.40;;;9.90;99.90;;;;;;4168732;28;20061;-73
2022/05/03 01:29:30;;;;;;;9.77;7.53;;;9.90;99.90;;;;;;4177912;28;20152;-73
2022/05/03 01:31:34;;;;;;;10.82;9.70;;;10.00;99.90;;;;;;4174348;28;20065;-73
2022/05/03 01:33:42;;;;;;;12.32;11.02;;;10.00;99.90;;;;;;4179816;28;20053;-73
2022/05/03 01:35:49;;;;;;;11.02;9.90;;;10.00;99.90;;;;;;4172096;28;20061;-73
2022/05/03 01:38:02;;;;;;;13.25;10.20;;;10.10;99.90;;;;;;4178036;28;20179;-72
2022/05/03 01:40:12;;;;;;;15.73;13.60;;;10.00;99.90;;;;;;4174238;28;20080;-73
2022/05/03 01:42:39;;;;;;;15.50;11.77;;;10.00;99.90;;;;;;4172832;28;20068;-73
2022/05/03 01:44:50;;;;;;;17.20;11.20;;;10.00;99.90;;;;;;4186787;28;20067;-73
2022/05/03 01:46:59;;;;;;;10.85;9.85;;;10.00;99.90;;;;;;4173195;28;20162;-73
2022/05/03 01:51:37;;;;;;;10.45;9.43;;;9.90;99.90;;;;;;4174450;28;20061;-73
2022/05/03 01:53:45;;;;;;;8.40;7.68;;;9.90;99.90;;;;;;4174927;28;20053;-73
2022/05/03 01:55:55;;;;;;;12.73;10.98;;;9.80;99.90;;;;;;4174474;28;20811;-73
2022/05/03 01:58:23;;;;;;;9.88;8.98;;;9.80;99.90;;;;;;4176363;28;20107;-73
2022/05/03 02:00:26;;;;;;;13.57;11.40;;;9.80;99.90;;;;;;4177121;28;20104;-73
2022/05/03 02:02:48;;;;;;;14.93;11.90;;;9.70;99.90;;;;;;4173366;28;20057;-73
2022/05/03 02:05:01;;;;;;;11.85;9.75;;;9.60;99.90;;;;;;4171064;28;20053;-73
2022/05/03 02:07:19;;;;;;;10.63;9.65;;;9.50;99.90;;;;;;4173654;28;20061;-73
2022/05/03 02:10:00;;;;;;;11.15;10.13;;;9.50;99.90;;;;;;4175600;28;20104;-73
2022/05/03 02:12:14;;;;;;;10.52;9.48;;;9.50;99.90;;;;;;4168528;28;20065;-73
2022/05/03 02:14:47;;;;;;;10.93;9.90;;;9.50;99.90;;;;;;4177661;28;20850;-73
2022/05/03 02:16:48;;;;;;;15.68;11.65;;;9.30;99.90;;;;;;4172341;28;20914;-73
2022/05/03 02:19:30;;;;;;;12.82;11.55;;;9.20;99.90;;;;;;4169744;28;20057;-73
2022/05/03 02:21:45;;;;;;;10.82;9.73;;;9.20;99.90;;;;;;4171061;28;20056;-73
2022/05/03 02:24:02;;;;;;;11.02;9.93;;;9.10;99.90;;;;;;4172753;28;20061;-73
2022/05/03 02:26:17;;;;;;;10.27;9.38;;;9.20;99.90;;;;;;4172983;28;20058;-73
2022/05/03 02:28:49;;;;;;;11.23;9.63;;;9.20;99.90;;;;;;4172453;28;20092;-73
2022/05/03 02:30:52;;;;;;;10.00;9.10;;;9.30;99.90;;;;;;4175278;28;20068;-73
2022/05/03 02:33:03;;;;;;;16.45;10.50;;;9.30;99.90;;;;;;4171834;28;20054;-73
2022/05/03 02:35:06;;;;;;;;;;;9.30;99.90;;;;;;4170050;28;20180;-73
2022/05/03 02:37:19;;;;;;;11.50;10.20;;;9.20;99.90;;;;;;4166821;28;19929;-73
2022/05/03 02:39:26;;;;;;;12.52;11.02;;;9.10;99.90;;;;;;4175536;28;20064;-73
2022/05/03 02:41:32;;;;;;;13.10;10.55;;;9.00;99.90;;;;;;4167751;28;20058;-73
2022/05/03 02:43:35;;;;;;;10.98;9.93;;;9.00;99.90;;;;;;4172047;28;20054;-73
2022/05/03 02:45:43;;;;;;;11.65;10.35;;;8.90;99.90;;;;;;4171294;28;20713;-73
2022/05/03 02:48:14;;;;;;;13.60;11.18;;;8.90;99.90;;;;;;4171324;28;20061;-73
2022/05/03 02:50:19;;;;;;;11.90;10.65;;;8.90;99.90;;;;;;4177825;28;20181;-73
2022/05/03 02:52:29;;;;;;;12.43;11.10;;;8.90;99.90;;;;;;4177012;28;20068;-73
2022/05/03 02:55:02;;;;;;;11.93;10.48;;;8.80;99.90;;;;;;4171928;28;20057;-74
2022/05/03 02:57:21;;;;;;;11.77;10.57;;;8.90;99.90;;;;;;4174575;28;20061;-73
2022/05/03 03:02:21;;;;;;;11.90;10.70;;;9.00;99.90;;;;;;4176070;28;20101;-73
2022/05/03 03:04:36;;;;;;;89.53;48.10;;;9.00;99.90;;;;;;4174035;28;20716;-73
2022/05/03 03:06:42;;;;;;;41.60;25.80;;;8.90;99.90;;;;;;4173241;28;20200;-73
2022/05/03 03:08:45;;;;;;;17.88;13.70;;;8.90;99.90;;;;;;4173334;28;20861;-73
2022/05/03 03:11:03;;;;;;;17.70;14.60;;;9.00;99.90;;;;;;4173534;28;20677;-73
2022/05/03 03:13:14;;;;;;;35.30;23.40;;;9.00;99.90;;;;;;4176690;28;20067;-73
2022/05/03 03:15:23;;;;;;;27.92;20.05;;;9.00;99.90;;;;;;4173914;28;20088;-73
2022/05/03 03:17:28;;;;;;;22.80;18.00;;;9.00;99.90;;;;;;4171456;28;20068;-73
2022/05/03 03:19:58;;;;;;;17.67;14.63;;;9.10;99.90;;;;;;4171363;28;20107;-73
2022/05/03 03:22:04;;;;;;;29.70;22.83;;;9.00;99.90;;;;;;4173920;28;20058;-73
2022/05/03 03:24:10;;;;;;;33.60;26.75;;;9.00;99.90;;;;;;4176845;28;20049;-74
2022/05/03 03:26:13;;;;;;;36.15;27.95;;;9.00;99.90;;;;;;4168118;28;20131;-73
2022/05/03 03:28:20;;;;;;;30.58;23.58;;;8.90;99.90;;;;;;4170740;28;20176;-73
2022/05/03 03:30:22;;;;;;;26.88;21.20;;;8.90;99.90;;;;;;4169305;28;20084;-72
2022/05/03 03:32:25;;;;;;;30.05;24.70;;;8.90;99.90;;;;;;4170090;28;20881;-73
2022/05/03 03:34:28;;;;;;;32.20;25.73;;;8.90;99.90;;;;;;4176814;28;20064;-73
2022/05/03 03:36:31;;;;;;;28.42;24.08;;;8.90;99.90;;;;;;4167790;28;20066;-73
2022/05/03 03:38:41;;;;;;;20.15;16.00;;;8.80;99.90;;;;;;4169511;28;20089;-73
2022/05/03 03:40:45;;;;;;;21.40;18.27;;;8.80;99.90;;;;;;4166880;28;20080;-73
2022/05/03 03:42:49;;;;;;;18.63;16.30;;;8.80;99.90;;;;;;4177604;28;20902;-73
2022/05/03 03:44:52;;;;;;;22.20;19.38;;;8.80;99.90;;;;;;4173005;28;20062;-73
2022/05/03 03:46:54;;;;;;;18.08;16.17;;;8.80;99.90;;;;;;4173069;28;20112;-73
2022/05/03 03:48:56;;;;;;;20.40;15.70;;;8.90;99.90;;;;;;4175307;28;20101;-73
2022/05/03 03:50:59;;;;;;;17.80;16.00;;;8.80;99.90;;;;;;4175579;28;20093;-73
2022/05/03 03:53:01;;;;;;;17.25;15.45;;;8.70;99.90;;;;;;4173872;28;20064;-73
2022/05/03 03:55:04;;;;;;;17.13;15.18;;;8.60;99.90;;;;;;4172673;28;20061;-73
2022/05/03 03:57:09;;;;;;;18.92;14.20;;;8.60;99.90;;;;;;4174867;28;20060;-73
2022/05/03 03:59:12;;;;;;;16.02;14.00;;;8.60;99.90;;;;;;4176624;28;20100;-72
2022/05/03 04:01:14;;;;;;;16.88;13.55;;;8.60;99.90;;;;;;4179892;28;20101;-73
2022/05/03 04:03:16;;;;;;;17.80;14.77;;;8.50;99.90;;;;;;4174254;28;20050;-73
2022/05/03 04:05:20;;;;;;;17.88;14.18;;;8.50;99.90;;;;;;4173907;28;20053;-74
2022/05/03 04:07:22;;;;;;;19.00;14.10;;;8.50;99.90;;;;;;4174922;28;20165;-73
2022/05/03 04:09:24;;;;;;;18.77;16.05;;;8.40;99.90;;;;;;4174219;28;20056;-73
2022/05/03 04:11:25;;;;;;;19.33;15.48;;;8.40;99.90;;;;;;4175807;28;20882;-73
2022/05/03 04:13:27;;;;;;;15.88;13.90;;;8.30;99.90;;;;;;4178906;28;20068;-73
2022/05/03 04:15:30;;;;;;;25.92;15.65;;;8.30;99.90;;;;;;4180102;28;20053;-73
2022/05/03 04:17:33;;;;;;;19.30;15.38;;;8.30;99.90;;;;;;4176864;28;20069;-73
2022/05/03 04:19:35;;;;;;;16.70;14.68;;;8.30;99.90;;;;;;4176123;28;20054;-74
2022/05/03 04:21:37;;;;;;;16.45;14.27;;;8.40;99.90;;;;;;4177256;28;20890;-73
2022/05/03 04:23:38;;;;;;;16.15;14.45;;;8.50;99.90;;;;;;4175731;28;20068;-73
2022/05/03 04:25:40;;;;;;;16.20;14.07;;;8.60;99.90;;;;;;4175535;28;20057;-73
2022/05/03 04:27:42;;;;;;;18.42;14.13;;;8.70;99.90;;;;;;4179033;28;20057;-73
2022/05/03 04:29:43;;;;;;;19.92;14.52;;;8.70;99.90;;;;;;4178916;28;20092;-73
2022/05/03 04:31:45;;;;;;;15.25;13.65;;;8.70;99.90;;;;;;4175170;28;20064;-72
2022/05/03 04:33:47;;;;;;;14.75;12.48;;;8.80;99.90;;;;;;4178001;28;20064;-73
2022/05/03 04:35:48;;;;;;;16.50;12.30;;;8.90;99.90;;;;;;4180290;28;20049;-74
2022/05/03 04:37:50;;;;;;;19.10;12.20;;;9.00;99.90;;;;;;4181281;28;20087;-73
2022/05/03 04:39:52;;;;;;;13.48;12.18;;;9.10;99.90;;;;;;4178768;28;20180;-73
2022/05/03 04:41:54;;;;;;;16.42;13.50;;;9.20;99.90;;;;;;4175120;28;20053;-73
2022/05/03 04:43:56;;;;;;;13.70;12.40;;;9.20;99.90;;;;;;4174202;28;20057;-73
2022/05/03 04:45:59;;;;;;;13.07;11.80;;;9.30;99.90;;;;;;4173679;28;20955;-73
2022/05/03 04:48:00;;;;;;;14.45;12.63;;;9.30;99.90;;;;;;4172179;28;20887;-73
2022/05/03 04:50:03;;;;;;;17.05;13.25;;;9.40;99.90;;;;;;4173897;28;20057;-73
2022/05/03 04:52:05;;;;;;;15.05;12.80;;;9.50;99.90;;;;;;4174356;28;20852;-77
2022/05/03 04:54:06;;;;;;;13.50;12.07;;;9.60;99.90;;;;;;4179076;28;20097;-74
2022/05/03 04:56:22;;;;;;;15.63;12.85;;;9.70;99.90;;;;;;4169599;28;20058;-74
2022/05/03 04:58:23;;;;;;;25.05;12.75;;;9.90;99.90;;;;;;4167898;28;20769;-73
2022/05/03 05:00:25;;;;;;;15.30;13.70;;;10.10;99.90;;;;;;4166600;28;20168;-73
2022/05/03 05:02:28;;;;;;;19.70;13.50;;;10.20;99.90;;;;;;4164724;28;20125;-73
2022/05/03 05:04:30;;;;;;;16.05;13.52;;;10.30;99.90;;;;;;4173104;28;20067;-73
2022/05/03 05:06:32;;;;;;;15.27;12.65;;;10.50;99.90;;;;;;4171367;28;20180;-74
2022/05/03 05:08:33;;;;;;;15.15;12.30;;;10.60;99.90;;;;;;4177856;28;20101;-73
2022/05/03 05:10:35;;;;;;;15.48;13.65;;;10.70;99.90;;;;;;4168990;28;20054;-73
2022/05/03 05:12:37;;;;;;;13.98;12.55;;;10.70;99.90;;;;;;4180980;28;20060;-73
2022/05/03 05:14:38;;;;;;;16.00;12.65;;;10.80;99.90;;;;;;4168461;28;20058;-73
2022/05/03 05:16:40;;;;;;;14.23;12.80;;;10.80;99.90;;;;;;4178676;28;20061;-76
2022/05/03 05:18:42;;;;;;;13.55;12.20;;;10.80;99.90;;;;;;4175287;28;20061;-81
2022/05/03 05:20:44;;;;;;;14.38;12.27;;;11.00;99.90;;;;;;4182377;28;20102;-81
2022/05/03 05:22:46;;;;;;;16.90;12.15;;;11.10;99.90;;;;;;4177695;28;20380;-81
2022/05/03 05:25:09;;;;;;;14.73;12.30;;;11.20;99.90;;;;;;4180314;28;20057;-78
2022/05/03 05:27:10;;;;;;;14.02;11.75;;;11.40;99.90;;;;;;4183002;28;20068;-78
2022/05/03 05:29:12;;;;;;;14.85;11.85;;;11.50;99.90;;;;;;4183292;28;21250;-78
2022/05/03 05:31:14;;;;;;;13.13;11.93;;;11.60;99.90;;;;;;4183761;28;20063;-78
2022/05/03 05:33:15;;;;;;;14.23;11.90;;;11.80;99.90;;;;;;4185059;28;20100;-78
2022/05/03 05:35:17;;;;;;;16.15;12.38;;;11.90;99.90;;;;;;4181206;28;20137;-78
2022/05/03 05:37:20;;;;;;;14.10;12.60;;;12.00;99.90;;;;;;4184354;28;20062;-78
2022/05/03 05:39:21;;;;;;;20.77;13.05;;;12.10;99.90;;;;;;4186378;28;20068;-78
2022/05/03 05:41:23;;;;;;;15.43;13.18;;;12.30;99.80;;;;;;4185264;28;20851;-78
2022/05/03 05:43:25;;;;;;;13.57;12.30;;;12.40;99.10;;;;;;4185194;28;20099;-78
2022/05/03 05:45:27;;;;;;;16.45;11.98;;;12.60;98.90;;;;;;4184132;28;20041;-78
2022/05/03 05:47:29;;;;;;;15.05;11.68;;;12.70;98.30;;;;;;4185095;28;20897;-78
2022/05/03 05:49:31;;;;;;;14.98;12.60;;;12.90;98.00;;;;;;4183905;28;20156;-78
2022/05/03 05:51:32;;;;;;;14.02;12.60;;;13.10;97.50;;;;;;4184734;28;20092;-78
2022/05/03 05:53:34;;;;;;;13.93;12.50;;;13.30;96.90;;;;;;4184980;28;20088;-78
2022/05/03 05:55:36;;;;;;;13.50;11.82;;;13.50;95.90;;;;;;4185256;28;20057;-78
2022/05/03 05:57:38;;;;;;;11.05;10.13;;;13.50;95.60;;;;;;4186578;28;20705;-78
2022/05/03 05:59:40;;;;;;;11.38;10.20;;;13.50;94.90;;;;;;4184831;28;20057;-78
2022/05/03 06:01:42;;;;;;;13.18;10.20;;;13.40;94.70;;;;;;4183823;28;20064;-78
2022/05/03 06:03:43;;;;;;;21.20;10.77;;;13.50;95.30;;;;;;4184469;28;20060;-78
2022/05/03 06:05:45;;;;;;;12.30;11.10;;;13.60;94.20;;;;;;4177553;28;20113;-78
2022/05/03 06:07:47;;;;;;;12.45;9.57;;;13.70;94.50;;;;;;4179934;28;20084;-78
2022/05/03 06:09:50;;;;;;;10.55;9.38;;;13.70;94.50;;;;;;4176578;28;20041;-78
2022/05/03 06:11:53;;;;;;;11.65;10.45;;;13.70;94.80;;;;;;4181659;28;20169;-78
2022/05/03 06:13:55;;;;;;;11.27;10.18;;;13.70;94.80;;;;;;4182947;28;20065;-78
2022/05/03 06:16:09;;;;;;;11.85;10.65;;;13.80;94.00;;;;;;4181366;28;20056;-78
2022/05/03 06:18:12;;;;;;;12.25;9.43;;;13.90;94.20;;;;;;4177154;28;21113;-78
2022/05/03 06:20:14;;;;;;;11.90;10.73;;;13.90;94.20;;;;;;4176313;28;20058;-78
2022/05/03 06:22:16;;;;;;;13.77;10.38;;;13.90;93.70;;;;;;4181895;28;20066;-78
2022/05/03 06:24:17;;;;;;;11.73;10.48;;;13.90;94.10;;;;;;4181586;28;20113;-78
2022/05/03 06:26:19;;;;;;;13.25;10.73;;;14.00;93.90;;;;;;4181344;28;20041;-78
2022/05/03 06:28:21;;;;;;;11.45;10.18;;;14.10;93.80;;;;;;4183055;22;20803;-73
2022/05/03 06:30:23;;;;;;;10.65;9.65;;;14.10;93.60;;;;;;4132301;28;20130;-75
2022/05/03 06:32:24;;;;;;;11.02;9.82;;;14.10;92.70;;;;;;4138054;28;20062;-75
2022/05/03 06:34:27;;;;;;;12.55;10.02;;;14.20;93.30;;;;;;4146506;28;20054;-73
2022/05/03 06:36:28;;;;;;;10.23;9.32;;;14.20;93.50;;;;;;4143022;28;20075;-77
2022/05/03 06:38:30;;;;;;;9.27;8.48;;;14.30;92.90;;;;;;4132622;28;20065;-74
2022/05/03 06:40:32;;;;;;;8.90;8.00;;;14.30;90.80;;;;;;4147526;28;20062;-74
2022/05/03 06:42:36;;;;;;;8.77;8.05;;;14.40;92.00;;;;;;4139241;28;20125;-74
2022/05/03 06:44:37;;;;;;;9.07;7.50;;;14.40;91.50;;;;;;4133381;28;20210;-75
2022/05/03 06:46:39;;;;;;;7.55;6.90;;;14.50;90.80;;;;;;4132039;28;20141;-74
2022/05/03 06:48:41;;;;;;;9.77;6.88;;;14.60;91.10;;;;;;4145508;28;20148;-74
2022/05/03 06:50:43;;;;;;;8.57;7.00;;;14.60;91.20;;;;;;4135491;28;22025;-74
2022/05/03 06:52:45;;;;;;;8.45;7.65;;;14.70;90.70;;;;;;4139722;28;20185;-72
2022/05/03 06:54:46;;;;;;;7.10;6.40;;;14.70;90.30;;;;;;4130886;28;21003;-75
2022/05/03 06:56:48;;;;;;;8.07;7.43;;;14.70;88.00;;;;;;4148960;28;20062;-74
2022/05/03 06:58:50;;;;;;;7.80;7.20;;;14.80;88.00;;;;;;4137870;28;20094;-74
2022/05/03 07:00:52;;;;;;;7.60;6.90;;;14.70;88.60;;;;;;4137468;28;20059;-75
2022/05/03 07:02:54;;;;;;;7.32;6.72;;;14.80;88.00;;;;;;4134378;28;20094;-74
2022/05/03 07:04:56;;;;;;;7.90;7.28;;;14.80;87.70;;;;;;4140607;28;20062;-75
2022/05/03 07:06:58;;;;;;;7.32;6.72;;;14.90;87.30;;;;;;4132411;28;20062;-75
2022/05/03 07:09:00;;;;;;;7.18;6.53;;;15.00;88.10;;;;;;4138307;28;20055;-75
2022/05/03 07:11:02;;;;;;;7.18;6.47;;;15.00;88.20;;;;;;4139654;28;20157;-75
2022/05/03 07:13:05;;;;;;;7.25;6.55;;;15.10;88.10;;;;;;4139184;28;20097;-75
2022/05/03 07:15:08;;;;;;;7.65;7.05;;;15.10;88.70;;;;;;4140992;28;20775;-72
2022/05/03 07:22:45;;;;;;;7.30;6.32;;;15.10;88.20;;;;;;4137186;28;20804;-75
2022/05/03 07:24:13;;;;;;;7.15;6.53;;;15.10;88.10;;;;;;4131013;28;20054;-74
2022/05/03 07:26:15;;;;;;;3.28;3.00;;;15.20;87.70;;;;;;4133544;28;20081;-74
2022/05/03 07:28:17;;;;;;;6.78;6.07;;;15.30;87.80;;;;;;4134323;28;20051;-74
2022/05/03 07:30:19;;;;;;;9.27;7.97;;;15.30;87.90;;;;;;4139060;28;20113;-74
2022/05/03 07:32:20;;;;;;;347.92;28.77;;;15.30;87.60;;;;;;4147201;28;20047;-73
2022/05/03 07:34:22;;;;;;;7.47;6.78;;;15.50;87.80;;;;;;4136907;28;20059;-76
2022/05/03 07:36:27;;;;;;;7.57;6.88;;;15.60;86.50;;;;;;4140739;28;20105;-73
2022/05/03 07:38:29;;;;;;;6.13;5.55;;;15.70;86.70;;;;;;4136744;28;20058;-74
2022/05/03 07:40:31;;;;;;;10.82;8.43;;;16.00;86.50;;;;;;4143884;28;20826;-73
2022/05/03 07:42:33;;;;;;;6.63;5.97;;;16.30;82.70;;;;;;4143882;28;20063;-73
2022/05/03 07:44:35;;;;;;;6.53;5.93;;;16.50;83.40;;;;;;4138923;28;20870;-73
2022/05/03 07:46:36;;;;;;;6.95;5.95;;;16.60;82.30;;;;;;4140728;28;20854;-73
2022/05/03 07:48:38;;;;;;;7.18;6.35;;;16.70;82.80;;;;;;4135577;28;20046;-74
2022/05/03 07:50:40;;;;;;;7.45;6.65;;;16.90;82.20;;;;;;4147624;28;20054;-73
2022/05/03 07:52:42;;;;;;;10.32;8.10;;;17.10;81.10;;;;;;4132261;28;20835;-73
2022/05/03 07:54:44;;;;;;;10.20;9.13;;;17.20;79.70;;;;;;4142689;28;20101;-73
2022/05/03 07:56:46;;;;;;;8.50;7.20;;;17.40;80.00;;;;;;4145750;28;20086;-73
2022/05/03 07:58:48;;;;;;;12.75;8.98;;;17.40;80.90;;;;;;4142551;28;20691;-74
2022/05/03 08:00:50;;;;;;;8.27;7.57;;;17.50;80.60;;;;;;4136921;28;20106;-73
2022/05/03 08:02:52;;;;;;;8.50;7.63;;;17.70;80.10;;;;;;4137197;28;20149;-73
2022/05/03 08:04:54;;;;;;;9.07;8.23;;;17.80;77.20;;;;;;4146073;28;20054;-74
2022/05/03 08:06:56;;;;;;;8.07;7.32;;;17.80;77.80;;;;;;4136112;28;20105;-73
2022/05/03 08:08:58;;;;;;;8.25;7.55;;;17.70;79.40;;;;;;4143290;28;20189;-73
2022/05/03 08:10:59;;;;;;;8.02;7.20;;;17.60;79.00;;;;;;4146572;28;20095;-73
2022/05/03 08:13:01;;;;;;;10.02;8.27;;;17.60;79.90;;;;;;4132536;28;20149;-73
2022/05/03 08:15:04;;;;;;;8.85;8.02;;;17.40;77.70;;;;;;4132238;28;20771;-73
2022/05/03 08:17:06;;;;;;;7.68;6.85;;;17.50;79.80;;;;;;4137626;28;20059;-74
2022/05/03 08:19:08;;;;;;;7.93;7.32;;;17.60;79.90;;;;;;4139190;28;20064;-73
2022/05/03 08:21:11;;;;;;;8.25;7.50;;;17.80;78.60;;;;;;4135380;28;20100;-74
2022/05/03 08:23:13;;;;;;;7.97;7.18;;;17.90;78.30;;;;;;4137168;28;20077;-74
2022/05/03 08:25:15;;;;;;;7.95;7.18;;;18.00;77.50;;;;;;4132807;28;20851;-73
2022/05/03 08:27:17;;;;;;;8.85;7.72;;;18.00;77.00;;;;;;4131947;28;20058;-73
2022/05/03 08:29:19;;;;;;;9.70;7.57;;;17.90;77.10;;;;;;4143189;28;20092;-73
2022/05/03 08:31:21;;;;;;;6.95;6.32;;;17.90;77.00;;;;;;4140401;28;20616;-73
2022/05/03 08:33:23;;;;;;;7.53;6.93;;;17.90;78.70;;;;;;4138435;28;20058;-73
2022/05/03 08:35:25;;;;;;;7.20;6.60;;;17.90;76.80;;;;;;4150709;28;20061;-73
2022/05/03 08:42:12;;;;;;;6.72;5.22;;;18.00;74.00;;;;;;4129505;28;20054;-73
2022/05/03 08:44:13;;;;;;;7.05;5.75;;;18.00;75.00;;;;;;4149395;28;20173;-73
2022/05/03 08:46:18;;;;;;;7.75;6.57;;;18.00;75.40;;;;;;4134679;28;20065;-73
2022/05/03 08:48:27;;;;;;;7.57;6.53;;;17.90;76.30;;;;;;4139752;28;20098;-73
2022/05/03 08:50:32;;;;;;;6.50;5.60;;;17.90;76.20;;;;;;4144809;28;20058;-73
2022/05/03 08:53:03;;;;;;;6.95;6.28;;;17.90;76.30;;;;;;4134662;28;20067;-73
2022/05/03 08:55:06;;;;;;;6.47;5.75;;;18.00;78.80;;;;;;4136075;28;20069;-73
2022/05/03 08:57:08;;;;;;;4.10;3.72;;;17.90;74.50;;;;;;4134107;28;20925;-73
2022/05/03 08:59:09;;;;;;;5.47;5.07;;;17.80;73.60;;;;;;4140764;28;20101;-73
2022/05/03 09:01:11;;;;;;;4.82;4.53;;;17.80;76.40;;;;;;4141403;28;21091;-73
2022/05/03 09:03:14;;;;;;;6.00;5.60;;;17.80;74.20;;;;;;4134470;28;20790;-74
2022/05/03 09:05:22;;;;;;;7.28;6.30;;;17.80;74.30;;;;;;4134766;28;20063;-73
2022/05/03 09:07:25;;;;;;;6.20;5.70;;;17.80;75.10;;;;;;4142691;28;20059;-73
2022/05/03 09:09:27;;;;;;;6.00;5.43;;;17.90;75.10;;;;;;4138094;28;20054;-73
2022/05/03 09:11:49;;;;;;;7.80;2.97;;;17.80;74.70;;;;;;4136107;28;20063;-73
2022/05/03 09:13:51;;;;;;;3.80;3.50;;;17.90;69.00;;;;;;4124922;28;20059;-75
2022/05/03 09:15:57;;;;;;;3.40;3.10;;;18.00;69.90;;;;;;4146472;28;20059;-73
2022/05/03 09:18:00;;;;;;;4.25;3.95;;;17.90;68.60;;;;;;4144839;28;20098;-73
2022/05/03 09:25:04;;;;;;;5.65;4.10;;;18.00;70.00;;;;;;4134776;28;20182;-73
2022/05/03 09:27:17;;;;;;;4.07;3.78;;;18.00;71.40;;;;;;4133918;28;20063;-73
2022/05/03 09:29:19;;;;;;;6.65;4.40;;;17.90;70.10;;;;;;4137916;28;20140;-73
2022/05/03 09:31:39;;;;;;;7.03;4.97;;;17.70;70.70;;;;;;4140821;28;20090;-74
2022/05/03 09:33:41;;;;;;;5.35;4.35;;;17.70;71.10;;;;;;4132939;28;20896;-75
2022/05/03 09:35:43;;;;;;;4.35;4.05;;;17.90;70.30;;;;;;4144740;28;20052;-73
2022/05/03 09:37:48;;;;;;;3.72;3.42;;;18.00;69.70;;;;;;4147696;28;20793;-73
2022/05/03 09:39:50;;;;;;;4.97;3.15;;;18.10;69.90;;;;;;4132147;28;20244;-73
2022/05/03 09:42:13;;;;;;;3.80;2.65;;;18.10;69.50;;;;;;4144012;28;20138;-73
2022/05/03 09:44:14;;;;;;;2.90;2.70;;;18.20;64.00;;;;;;4127631;28;20094;-74
2022/05/03 09:46:16;;;;;;;3.35;2.45;;;18.30;65.50;;;;;;4142146;28;20062;-73
2022/05/03 09:48:18;;;;;;;4.15;3.85;;;18.40;65.20;;;;;;4138890;28;20170;-73
2022/05/03 09:50:30;;;;;;;5.68;4.13;;;18.40;64.40;;;;;;4139176;28;20058;-74
2022/05/03 09:52:37;;;;;;;3.58;3.28;;;18.30;65.80;;;;;;4156824;28;20192;-74
2022/05/03 09:54:47;;;;;;;8.35;3.70;;;18.20;68.50;;;;;;4139645;28;20054;-74
2022/05/03 09:56:49;;;;;;;5.68;3.28;;;18.30;67.50;;;;;;4133037;28;20793;-74
2022/05/03 09:58:56;;;;;;;4.75;3.35;;;18.40;69.20;;;;;;4133413;28;20094;-74
2022/05/03 10:01:00;;;;;;;2.92;2.63;;;18.30;67.10;;;;;;4144293;28;20832;-74
2022/05/03 10:03:03;;;;;;;3.28;2.92;;;18.30;65.70;;;;;;4163583;28;20129;-73
2022/05/03 10:05:06;;;;;;;3.78;3.42;;;18.30;64.60;;;;;;4142912;28;20054;-74
2022/05/03 10:07:07;;;;;;;4.55;2.78;;;18.40;63.90;;;;;;4143361;28;20223;-74
2022/05/03 10:09:10;;;;;;;2.92;2.42;;;18.40;64.20;;;;;;4140515;28;20058;-74
2022/05/03 10:11:12;;;;;;;2.58;2.35;;;18.40;62.90;;;;;;4139107;28;20093;-73
2022/05/03 10:13:14;;;;;;;2.53;2.33;;;18.40;63.90;;;;;;4133152;28;20061;-73
2022/05/03 10:20:36;;;;;;;2.53;2.20;;;18.30;62.30;;;;;;4140415;28;20062;-73
2022/05/03 10:20:40;;;;;;;2.78;2.55;;;18.30;60.90;;;;;;4132990;28;20190;-73
2022/05/03 10:22:47;;;;;;;3.05;2.85;;;18.30;61.20;;;;;;4145483;28;20059;-73
2022/05/03 10:24:56;;;;;;;2.97;2.70;;;18.30;60.30;;;;;;4134575;28;20094;-73
2022/05/03 10:27:03;;;;;;;2.28;2.17;;;18.30;62.30;;;;;;4148380;28;20058;-73
2022/05/03 10:29:06;;;;;;;2.95;2.60;;;18.30;62.60;;;;;;4132594;28;20059;-73
2022/05/03 10:31:10;;;;;;;3.45;3.00;;;18.50;62.60;;;;;;4133252;28;20065;-74
2022/05/03 10:33:21;;;;;;;2.60;2.40;;;18.40;59.60;;;;;;4138149;28;20053;-74
2022/05/03 10:35:36;;;;;;;3.60;2.65;;;18.40;62.20;;;;;;4145891;28;20084;-73
2022/05/03 10:37:38;;;;;;;2.65;2.45;;;18.50;61.20;;;;;;4139418;28;20062;-74
2022/05/03 10:39:57;;;;;;;3.10;2.80;;;18.60;60.70;;;;;;4135343;28;20059;-73
2022/05/03 10:42:02;;;;;;;4.18;2.60;;;18.70;62.00;;;;;;4129766;28;20065;-73
2022/05/03 10:44:42;;;;;;;3.00;2.80;;;18.70;60.60;;;;;;4132375;28;20062;-73
2022/05/03 10:46:50;;;;;;;2.55;2.35;;;18.70;60.60;;;;;;4133954;28;20790;-73
2022/05/03 10:49:05;;;;;;;3.33;3.00;;;18.90;60.10;;;;;;4137902;28;20169;-74
2022/05/03 10:51:09;;;;;;;3.17;2.97;;;18.80;58.10;;;;;;4134631;28;21352;-73
2022/05/03 10:53:16;;;;;;;3.67;3.38;;;18.80;59.90;;;;;;4137059;28;20070;-73
2022/05/03 10:55:18;;;;;;;3.50;3.20;;;18.90;60.40;;;;;;4138057;28;20052;-73
2022/05/03 10:57:20;;;;;;;5.28;3.50;;;18.90;60.30;;;;;;4146805;28;20808;-73
2022/05/03 10:59:22;;;;;;;5.82;3.78;;;18.90;58.80;;;;;;4156505;28;20054;-74
2022/05/03 11:01:24;;;;;;;3.55;3.25;;;18.90;58.60;;;;;;4132386;28;20801;-73
2022/05/03 11:03:26;;;;;;;11.32;3.67;;;18.90;61.50;;;;;;4132394;28;20047;-74
2022/05/03 11:05:28;;;;;;;4.95;2.90;;;19.00;59.50;;;;;;4121788;28;21204;-74
2022/05/03 11:07:30;;;;;;;2.80;2.60;;;19.00;58.80;;;;;;4144170;28;20850;-73
2022/05/03 11:09:33;;;;;;;3.30;3.00;;;19.00;59.90;;;;;;4135301;28;20063;-73
2022/05/03 11:11:44;;;;;;;2.78;2.58;;;19.10;59.20;;;;;;4132887;28;20069;-73
2022/05/03 11:13:46;;;;;;;3.05;2.85;;;19.20;59.70;;;;;;4137195;28;20054;-73
2022/05/03 11:16:23;;;;;;;3.40;2.80;;;19.20;57.60;;;;;;4141088;28;20058;-73